createdAt,value
2019-02-28T00:00:51.758Z,49.23
2019-02-28T00:03:21.502Z,56.77
2019-02-28T00:05:51.160Z,47.30
2019-02-28T00:08:21.200Z,48.33
2019-02-28T00:10:50.880Z,49.03
2019-02-28T00:13:21.675Z,57.23
2019-02-28T00:15:52.799Z,44.43
2019-02-28T00:18:22.606Z,48.00
2019-02-28T00:20:52.636Z,47.97
2019-02-28T00:23:22.833Z,49.30
2019-02-28T00:25:52.410Z,57.10
2019-02-28T00:28:23.067Z,50.60
2019-02-28T00:30:53.878Z,50.57
2019-02-28T00:33:23.410Z,50.33
2019-02-28T00:35:53.218Z,56.10
2019-02-28T00:38:22.963Z,48.57
2019-02-28T00:40:52.868Z,54.20
2019-02-28T00:43:25.194Z,49.40
2019-02-28T00:45:53.840Z,55.03
2019-02-28T00:48:23.651Z,52.63
2019-02-28T00:50:53.584Z,62.27
2019-02-28T00:53:23.238Z,59.40
2019-02-28T00:55:52.793Z,63.73
2019-02-28T00:58:22.393Z,57.73
2019-02-28T01:00:52.033Z,60.07
2019-02-28T01:03:26.412Z,67.73
2019-02-28T01:05:53.312Z,57.07
2019-02-28T01:08:23.381Z,63.70
2019-02-28T01:10:52.988Z,59.40
2019-02-28T01:13:27.268Z,69.30
2019-02-28T01:15:54.569Z,55.23
2019-02-28T01:18:24.168Z,62.20
2019-02-28T01:20:53.765Z,62.40
2019-02-28T01:23:23.394Z,69.03
2019-02-28T01:25:52.965Z,70.87
2019-02-28T01:28:26.906Z,79.40
2019-02-28T01:30:57.182Z,68.53
2019-02-28T01:33:27.069Z,68.20
2019-02-28T01:35:56.686Z,73.07
2019-02-28T01:38:26.236Z,71.50
2019-02-28T01:40:56.036Z,72.20
2019-02-28T01:43:28.946Z,69.87
2019-02-28T01:45:59.461Z,72.93
2019-02-28T01:48:29.186Z,84.73
2019-02-28T01:51:00.796Z,81.80
2019-02-28T01:53:30.527Z,72.57
2019-02-28T01:56:02.502Z,75.10
2019-02-28T01:58:31.541Z,72.53
2019-02-28T02:01:01.586Z,78.93
2019-02-28T02:03:31.211Z,74.20
2019-02-28T02:06:01.681Z,97.83
2019-02-28T02:08:31.247Z,73.93
2019-02-28T02:11:20.196Z,71.97
2019-02-28T02:13:49.847Z,79.37
2019-02-28T02:16:19.628Z,83.23
2019-02-28T02:18:49.170Z,88.27
2019-02-28T02:21:19.718Z,77.10
2019-02-28T02:23:52.965Z,77.33
2019-02-28T02:26:21.078Z,78.20
2019-02-28T02:28:50.706Z,80.20
2019-02-28T02:31:27.133Z,73.87
2019-02-28T02:33:52.742Z,85.27
2019-02-28T02:36:22.737Z,83.70
2019-02-28T02:38:52.358Z,81.90
2019-02-28T02:41:22.149Z,84.47
2019-02-28T02:43:55.074Z,81.00
2019-02-28T02:46:23.009Z,85.17
2019-02-28T02:48:52.582Z,83.50
2019-02-28T02:51:22.324Z,85.03
2019-02-28T02:53:51.824Z,92.17
2019-02-28T02:56:21.391Z,78.27
2019-02-28T02:58:51.134Z,84.50
2019-02-28T03:01:23.149Z,83.27
2019-02-28T03:03:52.180Z,100.43
2019-02-28T03:06:21.900Z,83.53
2019-02-28T03:08:51.620Z,88.23
2019-02-28T03:11:24.684Z,102.33
2019-02-28T03:13:54.115Z,85.70
2019-02-28T03:16:23.740Z,82.10
2019-02-28T03:18:56.879Z,92.77
2019-02-28T03:21:24.651Z,87.17
2019-02-28T03:23:56.373Z,92.47
2019-02-28T03:26:26.150Z,87.73
2019-02-28T03:28:56.117Z,86.63
2019-02-28T03:31:25.974Z,85.43
2019-02-28T03:33:55.662Z,94.20
2019-02-28T03:36:25.387Z,100.90
2019-02-28T03:38:55.100Z,98.20
2019-02-28T03:41:24.624Z,86.97
2019-02-28T03:43:54.210Z,89.97
2019-02-28T03:46:23.901Z,90.83
2019-02-28T03:48:55.762Z,92.10
2019-02-28T03:51:28.449Z,94.63
2019-02-28T03:53:57.705Z,99.47
2019-02-28T03:56:27.379Z,90.57
2019-02-28T03:58:57.096Z,92.03
2019-02-28T04:01:28.424Z,96.43
2019-02-28T04:03:58.021Z,97.00
2019-02-28T04:06:28.969Z,101.90
2019-02-28T04:09:07.086Z,98.73
2019-02-28T04:11:31.130Z,122.50
2019-02-28T04:14:01.993Z,96.10
2019-02-28T04:16:31.709Z,104.97
2019-02-28T04:19:01.692Z,100.13
2019-02-28T04:21:31.871Z,105.50
2019-02-28T04:24:01.529Z,105.50
2019-02-28T04:26:31.159Z,115.47
2019-02-28T04:29:01.987Z,105.03
2019-02-28T04:31:31.615Z,116.70
2019-02-28T04:34:01.165Z,109.10
2019-02-28T04:36:35.413Z,116.10
2019-02-28T04:39:02.007Z,124.63
2019-02-28T04:41:32.969Z,105.77
2019-02-28T04:44:05.445Z,116.60
2019-02-28T04:46:35.171Z,125.73
2019-02-28T04:49:04.776Z,125.00
2019-02-28T04:51:37.039Z,127.57
2019-02-28T04:54:06.307Z,132.53
2019-02-28T04:56:35.944Z,118.83
2019-02-28T04:59:10.296Z,109.20
2019-02-28T05:01:39.875Z,123.73
2019-02-28T05:04:10.795Z,133.30
2019-02-28T05:06:41.657Z,120.97
2019-02-28T05:09:14.492Z,119.77
2019-02-28T05:11:42.626Z,124.20
2019-02-28T05:14:12.807Z,121.63
2019-02-28T05:16:47.178Z,126.83
2019-02-28T05:19:13.809Z,124.20
2019-02-28T05:21:43.469Z,119.70
2019-02-28T05:24:13.093Z,126.30
2019-02-28T05:26:42.767Z,126.40
2019-02-28T05:29:13.095Z,129.47
2019-02-28T05:31:43.089Z,131.63
2019-02-28T05:34:16.035Z,127.10
2019-02-28T05:36:46.123Z,138.67
2019-02-28T05:39:15.751Z,126.83
2019-02-28T05:41:49.107Z,131.07
2019-02-28T05:44:16.757Z,130.07
2019-02-28T05:46:46.362Z,130.93
2019-02-28T05:49:16.405Z,132.83
2019-02-28T05:51:48.159Z,140.40
2019-02-28T05:54:18.191Z,132.13
2019-02-28T05:56:48.369Z,146.50
2019-02-28T05:59:17.919Z,162.33
2019-02-28T06:01:47.720Z,134.57
2019-02-28T06:04:17.888Z,132.00
2019-02-28T06:06:47.588Z,141.63
2019-02-28T06:09:18.757Z,138.30
2019-02-28T06:11:48.446Z,140.07
2019-02-28T06:14:18.614Z,138.70
2019-02-28T06:16:48.417Z,142.57
2019-02-28T06:19:19.730Z,166.07
2019-02-28T06:21:53.058Z,146.00
2019-02-28T06:24:22.747Z,145.07
2019-02-28T06:26:52.347Z,147.00
2019-02-28T06:29:22.416Z,148.10
2019-02-28T06:31:53.449Z,140.27
2019-02-28T06:34:23.047Z,154.17
2019-02-28T06:36:52.868Z,125.60
2019-02-28T06:39:22.434Z,144.63
2019-02-28T06:41:52.031Z,136.87
2019-02-28T06:44:24.187Z,136.23
2019-02-28T06:46:53.038Z,137.77
2019-02-28T06:49:22.796Z,132.50
2019-02-28T06:51:52.889Z,133.07
2019-02-28T06:54:22.551Z,131.97
2019-02-28T06:56:54.114Z,124.47
2019-02-28T06:59:26.807Z,140.00
2019-02-28T07:01:57.699Z,129.97
2019-02-28T07:04:27.623Z,128.80
2019-02-28T07:06:57.558Z,125.57
2019-02-28T07:09:27.155Z,137.17
2019-02-28T07:11:56.897Z,144.20
2019-02-28T07:14:26.677Z,130.93
2019-02-28T07:16:59.122Z,129.20
2019-02-28T07:19:28.894Z,123.73
2019-02-28T07:22:00.756Z,119.27
2019-02-28T07:24:37.239Z,124.13
2019-02-28T07:27:04.181Z,117.60
2019-02-28T07:29:33.735Z,123.57
2019-02-28T07:32:03.421Z,116.47
2019-02-28T07:34:33.959Z,132.30
2019-02-28T07:37:04.196Z,127.53
2019-02-28T07:39:36.540Z,128.57
2019-02-28T07:42:05.382Z,120.27
2019-02-28T07:44:35.068Z,126.47
2019-02-28T07:47:05.021Z,119.80
2019-02-28T07:49:36.753Z,129.80
2019-02-28T07:52:06.639Z,124.80
2019-02-28T07:54:36.333Z,125.30
2019-02-28T07:57:06.039Z,117.05
2019-02-28T07:59:40.967Z,126.83
2019-02-28T08:02:07.068Z,145.37
2019-02-28T08:04:36.689Z,134.87
2019-02-28T08:07:06.624Z,139.77
2019-02-28T08:09:36.859Z,122.83
2019-02-28T08:12:07.956Z,149.33
2019-02-28T08:14:39.675Z,132.73
2019-02-28T08:17:15.921Z,133.70
2019-02-28T08:19:45.352Z,133.77
2019-02-28T08:22:23.379Z,146.73
2019-02-28T08:24:47.199Z,139.93
2019-02-28T08:27:16.941Z,130.10
2019-02-28T08:29:46.677Z,141.03
2019-02-28T08:32:16.471Z,133.40
2019-02-28T08:34:50.065Z,138.83
2019-02-28T08:37:21.885Z,132.70
2019-02-28T08:39:51.413Z,135.17
2019-02-28T08:42:21.053Z,139.23
2019-02-28T08:44:50.575Z,139.03
2019-02-28T08:47:21.157Z,132.33
2019-02-28T08:49:51.635Z,127.43
2019-02-28T08:52:21.202Z,133.67
2019-02-28T08:54:50.766Z,125.13
2019-02-28T08:57:21.940Z,134.63
2019-02-28T08:59:52.533Z,130.17
2019-02-28T09:02:23.314Z,138.60
2019-02-28T09:04:53.279Z,116.53
2019-02-28T09:07:22.912Z,134.20
2019-02-28T09:09:52.686Z,120.17
2019-02-28T09:12:22.539Z,125.10
2019-02-28T09:14:55.340Z,131.13
2019-02-28T09:17:23.781Z,122.57
2019-02-28T09:19:53.428Z,126.07
2019-02-28T09:22:26.835Z,133.67
2019-02-28T09:24:57.490Z,114.77
2019-02-28T09:27:29.377Z,126.23
2019-02-28T09:29:59.069Z,122.43
2019-02-28T09:32:28.693Z,127.73
2019-02-28T09:34:58.539Z,128.23
2019-02-28T09:37:29.917Z,130.60
2019-02-28T09:40:00.011Z,129.13
2019-02-28T09:42:31.674Z,143.93
2019-02-28T09:45:06.435Z,123.83
2019-02-28T09:47:32.984Z,139.40
2019-02-28T09:50:02.713Z,134.73
2019-02-28T09:52:32.450Z,133.50
2019-02-28T09:55:02.044Z,129.33
2019-02-28T09:57:31.757Z,125.83
2019-02-28T10:00:01.539Z,154.43
2019-02-28T10:02:31.219Z,140.13
2019-02-28T10:05:02.943Z,140.67
2019-02-28T10:07:32.481Z,135.00
2019-02-28T10:10:02.179Z,137.07
2019-02-28T10:12:31.887Z,141.33
2019-02-28T10:15:07.000Z,140.00
2019-02-28T10:17:33.034Z,144.97
2019-02-28T10:20:04.775Z,142.97
2019-02-28T10:22:34.664Z,133.50
2019-02-28T10:25:06.514Z,134.13
2019-02-28T10:27:36.521Z,147.03
2019-02-28T10:30:16.777Z,141.47
2019-02-28T10:32:46.871Z,132.63
2019-02-28T10:35:18.537Z,135.67
2019-02-28T10:37:49.305Z,146.07
2019-02-28T10:40:31.277Z,142.60
2019-02-28T10:43:00.985Z,131.17
2019-02-28T10:45:30.932Z,126.77
2019-02-28T10:48:03.953Z,138.90
2019-02-28T10:50:34.368Z,140.93
2019-02-28T10:53:06.135Z,146.33
2019-02-28T10:55:39.470Z,139.27
2019-02-28T10:58:09.380Z,144.47
2019-02-28T11:00:46.649Z,147.73
2019-02-28T11:03:16.659Z,135.07
2019-02-28T11:05:46.954Z,140.97
2019-02-28T11:08:19.236Z,142.13
2019-02-28T11:10:49.158Z,147.47
2019-02-28T11:13:22.735Z,136.27
2019-02-28T11:15:53.090Z,121.23
2019-02-28T11:18:22.772Z,146.23
2019-02-28T11:20:52.384Z,151.73
2019-02-28T11:23:23.642Z,135.87
2019-02-28T11:25:53.759Z,147.20
2019-02-28T11:28:27.923Z,135.60
2019-02-28T11:30:57.098Z,130.67
2019-02-28T11:33:27.089Z,137.73
2019-02-28T11:35:59.093Z,137.77
2019-02-28T11:38:28.820Z,137.07
2019-02-28T11:40:58.601Z,128.70
2019-02-28T11:43:28.275Z,157.20
2019-02-28T11:46:00.794Z,135.23
2019-02-28T11:48:30.618Z,147.57
2019-02-28T11:51:00.225Z,146.37
2019-02-28T11:53:29.930Z,140.33
2019-02-28T11:56:01.308Z,137.73
2019-02-28T11:58:31.226Z,159.17
2019-02-28T12:01:02.304Z,152.57
2019-02-28T12:03:35.492Z,147.80
2019-02-28T12:06:03.864Z,136.47
2019-02-28T12:08:33.675Z,140.67
2019-02-28T12:11:03.220Z,166.57
2019-02-28T12:13:32.837Z,154.10
2019-02-28T12:16:03.570Z,134.63
2019-02-28T12:18:33.265Z,131.37
2019-02-28T12:21:04.918Z,137.67
2019-02-28T12:23:34.279Z,127.90
2019-02-28T12:26:04.024Z,130.37
2019-02-28T12:28:35.230Z,137.90
2019-02-28T12:31:08.153Z,141.97
2019-02-28T12:33:37.824Z,134.63
2019-02-28T12:36:07.570Z,153.93
2019-02-28T12:38:39.876Z,123.53
2019-02-28T12:41:09.422Z,114.20
2019-02-28T12:43:40.564Z,132.63
2019-02-28T12:46:10.861Z,129.67
2019-02-28T12:48:40.449Z,143.03
2019-02-28T12:51:10.516Z,135.27
2019-02-28T12:53:40.253Z,141.77
2019-02-28T12:56:29.126Z,130.30
2019-02-28T12:58:58.759Z,125.40
2019-02-28T13:01:28.440Z,122.53
2019-02-28T13:04:00.603Z,128.97
2019-02-28T13:06:30.564Z,134.30
2019-02-28T13:09:00.153Z,115.23
2019-02-28T13:11:29.672Z,114.23
2019-02-28T13:14:00.036Z,114.43
2019-02-28T13:16:30.627Z,120.27
2019-02-28T13:19:00.263Z,115.57
2019-02-28T13:21:31.219Z,136.00
2019-02-28T13:24:01.344Z,135.10
2019-02-28T13:26:33.693Z,127.80
2019-02-28T13:29:02.836Z,119.87
2019-02-28T13:31:32.466Z,123.23
2019-02-28T13:34:02.072Z,131.43
2019-02-28T13:36:31.715Z,112.87
2019-02-28T13:39:01.390Z,137.87
2019-02-28T13:41:31.404Z,131.53
2019-02-28T13:44:01.033Z,132.23
2019-02-28T13:46:33.988Z,119.67
2019-02-28T13:49:02.071Z,116.53
2019-02-28T13:51:32.786Z,114.57
2019-02-28T13:54:06.388Z,111.80
2019-02-28T13:56:34.625Z,111.73
2019-02-28T13:59:04.340Z,103.10
2019-02-28T14:01:34.211Z,109.90
2019-02-28T14:04:03.871Z,115.60
2019-02-28T14:06:33.846Z,111.83
2019-02-28T14:09:04.745Z,115.43
2019-02-28T14:11:34.274Z,123.40
2019-02-28T14:14:06.363Z,120.40
2019-02-28T14:16:35.248Z,126.93
2019-02-28T14:19:05.189Z,118.97
2019-02-28T14:21:37.065Z,132.30
2019-02-28T14:24:06.182Z,103.70
2019-02-28T14:26:42.537Z,105.83
2019-02-28T14:29:10.487Z,96.93
2019-02-28T14:31:38.587Z,116.63
2019-02-28T14:34:08.818Z,121.43
2019-02-28T14:36:41.787Z,101.67
2019-02-28T14:39:12.355Z,104.27
2019-02-28T14:41:41.958Z,101.43
2019-02-28T14:44:11.706Z,111.73
2019-02-28T14:46:41.426Z,110.50
2019-02-28T14:49:12.500Z,128.60
2019-02-28T14:51:42.781Z,101.70
2019-02-28T14:54:12.339Z,98.43
2019-02-28T14:56:42.971Z,100.17
2019-02-28T14:59:12.742Z,128.77
2019-02-28T15:01:42.394Z,119.87
2019-02-28T15:04:11.891Z,120.03
2019-02-28T15:06:41.439Z,100.40
2019-02-28T15:09:16.674Z,125.13
2019-02-28T15:11:46.839Z,123.73
2019-02-28T15:14:17.855Z,106.67
2019-02-28T15:16:47.583Z,113.90
2019-02-28T15:19:17.139Z,105.13
2019-02-28T15:21:46.688Z,96.83
2019-02-28T15:24:16.219Z,94.83
2019-02-28T15:26:45.724Z,84.13
2019-02-28T15:29:15.436Z,85.50
2019-02-28T15:31:44.970Z,84.97
2019-02-28T15:34:14.551Z,76.87
2019-02-28T15:36:44.517Z,72.47
2019-02-28T15:39:17.160Z,74.87
2019-02-28T15:41:45.499Z,88.70
2019-02-28T15:44:15.134Z,86.70
2019-02-28T15:46:47.545Z,60.60
2019-02-28T15:49:16.033Z,61.37
2019-02-28T15:51:47.972Z,76.10
2019-02-28T15:54:21.652Z,57.80
2019-02-28T15:56:55.154Z,60.03
2019-02-28T15:59:23.009Z,67.23
2019-02-28T16:01:52.707Z,55.30
2019-02-28T16:04:23.539Z,63.37
2019-02-28T16:06:57.922Z,54.87
2019-02-28T16:09:28.120Z,45.50
2019-02-28T16:11:59.383Z,47.87
2019-02-28T16:14:34.813Z,57.73
2019-02-28T16:17:03.571Z,53.67
2019-02-28T16:19:33.363Z,48.97
2019-02-28T16:22:02.943Z,57.00
2019-02-28T16:24:32.461Z,61.07
2019-02-28T16:27:02.232Z,63.10
2019-02-28T16:29:31.838Z,51.80
2019-02-28T16:32:01.734Z,71.37
2019-02-28T16:34:31.303Z,60.13
2019-02-28T16:37:01.863Z,57.23
2019-02-28T16:39:31.612Z,60.90
2019-02-28T16:42:01.215Z,49.30
2019-02-28T16:44:31.678Z,54.43
2019-02-28T16:47:01.724Z,55.70
2019-02-28T16:49:31.507Z,65.97
2019-02-28T16:52:02.607Z,64.03
2019-02-28T16:54:34.240Z,62.53
2019-02-28T16:57:03.785Z,70.73
2019-02-28T16:59:33.762Z,49.53
2019-02-28T17:02:03.541Z,60.73
2019-02-28T17:04:33.513Z,53.50
2019-02-28T17:07:03.201Z,64.43
2019-02-28T17:09:34.646Z,60.00
2019-02-28T17:12:05.918Z,69.70
2019-02-28T17:14:35.472Z,73.70
2019-02-28T17:17:08.719Z,74.17
2019-02-28T17:19:38.246Z,62.30
2019-02-28T17:22:07.926Z,60.37
2019-02-28T17:24:37.588Z,58.50
2019-02-28T17:27:11.311Z,73.60
2019-02-28T17:29:45.602Z,56.23
2019-02-28T17:32:15.190Z,66.73
2019-02-28T17:34:45.394Z,50.07
2019-02-28T17:37:15.065Z,56.80
2019-02-28T17:39:47.462Z,56.07
2019-02-28T17:42:16.051Z,52.90
2019-02-28T17:44:56.139Z,65.00
2019-02-28T17:47:33.110Z,48.03
2019-02-28T17:50:33.626Z,56.97
2019-02-28T17:53:36.910Z,55.63
2019-02-28T17:56:23.203Z,56.20
2019-02-28T17:59:18.672Z,45.30
2019-02-28T18:02:27.639Z,58.67
2019-02-28T18:05:40.362Z,61.67
2019-02-28T18:08:37.461Z,59.70
2019-02-28T18:11:34.115Z,55.60
2019-02-28T18:14:42.716Z,62.43
2019-02-28T18:17:34.965Z,53.80
2019-02-28T18:20:20.999Z,59.03
2019-02-28T18:23:07.386Z,56.63
2019-02-28T18:25:44.758Z,61.00
2019-02-28T18:28:41.654Z,56.00
2019-02-28T18:31:19.088Z,59.47
2019-02-28T18:33:52.348Z,57.60
2019-02-28T18:36:29.376Z,57.23
2019-02-28T18:38:59.006Z,54.83
2019-02-28T18:41:29.249Z,64.67
2019-02-28T18:43:59.937Z,64.50
2019-02-28T18:46:31.611Z,68.73
2019-02-28T18:49:01.208Z,50.53
2019-02-28T18:51:30.957Z,65.97
2019-02-28T18:54:01.038Z,56.43
2019-02-28T18:56:30.695Z,71.47
2019-02-28T18:59:00.264Z,76.67
2019-02-28T19:01:29.960Z,53.70
2019-02-28T19:03:59.490Z,72.80
2019-02-28T19:06:30.822Z,65.03
2019-02-28T19:09:04.836Z,64.03
2019-02-28T19:11:34.425Z,62.50
2019-02-28T19:14:04.074Z,68.00
2019-02-28T19:16:33.796Z,54.03
2019-02-28T19:19:03.372Z,65.67
2019-02-28T19:21:32.977Z,61.53
2019-02-28T19:24:02.633Z,60.70
2019-02-28T19:26:32.285Z,61.47
2019-02-28T19:29:01.802Z,62.57
2019-02-28T19:31:31.595Z,59.67
2019-02-28T19:34:01.124Z,57.77
2019-02-28T19:36:30.880Z,57.10
2019-02-28T19:39:00.705Z,51.60
2019-02-28T19:41:30.387Z,65.47
2019-02-28T19:44:00.494Z,54.27
2019-02-28T19:46:30.273Z,60.70
2019-02-28T19:48:59.942Z,66.37
2019-02-28T19:51:29.697Z,48.10
2019-02-28T19:53:59.433Z,68.27
2019-02-28T19:56:29.195Z,65.77
2019-02-28T19:58:58.981Z,57.57
2019-02-28T20:01:28.666Z,57.33
2019-02-28T20:03:58.201Z,76.00
2019-02-28T20:06:27.901Z,55.43
2019-02-28T20:08:57.625Z,78.03
2019-02-28T20:11:27.366Z,61.67
2019-02-28T20:13:57.262Z,65.30
2019-02-28T20:16:31.868Z,67.70
2019-02-28T20:19:01.467Z,59.60
2019-02-28T20:21:31.351Z,53.63
2019-02-28T20:24:01.445Z,66.77
2019-02-28T20:26:31.560Z,58.80
2019-02-28T20:29:01.252Z,63.37
2019-02-28T20:31:31.056Z,69.30
2019-02-28T20:34:00.687Z,58.40
2019-02-28T20:36:30.561Z,62.93
2019-02-28T20:39:00.842Z,70.03
2019-02-28T20:41:30.860Z,64.97
2019-02-28T20:44:01.656Z,71.17
2019-02-28T20:46:31.224Z,73.80
2019-02-28T20:49:00.995Z,65.57
2019-02-28T20:51:30.537Z,65.23
2019-02-28T20:54:00.297Z,67.80
2019-02-28T20:56:29.849Z,64.53
2019-02-28T20:58:59.585Z,58.13
2019-02-28T21:01:29.658Z,66.53
2019-02-28T21:03:59.350Z,71.67
2019-02-28T21:06:28.906Z,67.30
2019-02-28T21:09:05.105Z,59.70
2019-02-28T21:11:34.794Z,65.70
2019-02-28T21:14:04.673Z,66.40
2019-02-28T21:16:36.559Z,60.57
2019-02-28T21:19:06.340Z,64.93
2019-02-28T21:21:36.125Z,65.23
2019-02-28T21:24:05.992Z,71.00
2019-02-28T21:26:35.621Z,65.30
2019-02-28T21:29:05.207Z,55.80
2019-02-28T21:31:35.193Z,57.27
2019-02-28T21:34:05.389Z,65.47
2019-02-28T21:36:36.113Z,68.17
2019-02-28T21:39:08.427Z,68.67
2019-02-28T21:41:38.189Z,57.30
2019-02-28T21:44:10.656Z,79.00
2019-02-28T21:46:41.061Z,59.03
2019-02-28T21:49:10.685Z,65.27
2019-02-28T21:51:40.470Z,60.30
2019-02-28T21:54:11.389Z,68.70
2019-02-28T21:56:40.981Z,69.63
2019-02-28T21:59:10.650Z,67.00
2019-02-28T22:01:40.243Z,70.87
2019-02-28T22:04:10.139Z,71.00
2019-02-28T22:06:39.674Z,77.57
2019-02-28T22:09:09.844Z,65.37
2019-02-28T22:11:39.577Z,71.93
2019-02-28T22:14:10.717Z,73.43
2019-02-28T22:16:42.320Z,73.57
2019-02-28T22:19:11.993Z,72.63
2019-02-28T22:21:41.590Z,77.57
2019-02-28T22:24:11.247Z,79.17
2019-02-28T22:26:40.913Z,82.43
2019-02-28T22:29:10.662Z,75.73
2019-02-28T22:31:42.327Z,85.70
2019-02-28T22:34:13.615Z,88.37
2019-02-28T22:36:43.755Z,84.50
2019-02-28T22:39:14.779Z,80.27
2019-02-28T22:41:44.399Z,74.43
2019-02-28T22:44:14.078Z,78.70
2019-02-28T22:46:43.644Z,74.10
2019-02-28T22:49:13.436Z,72.27
2019-02-28T22:51:44.501Z,72.50
2019-02-28T22:54:14.090Z,72.23
2019-02-28T22:56:43.663Z,78.87
2019-02-28T22:59:13.260Z,74.20
2019-02-28T23:01:45.415Z,84.30
2019-02-28T23:04:16.719Z,72.53
2019-02-28T23:06:46.418Z,79.10
2019-02-28T23:09:16.125Z,83.13
2019-02-28T23:11:45.643Z,81.03
2019-02-28T23:14:17.906Z,84.30
2019-02-28T23:17:06.933Z,79.27
2019-02-28T23:19:36.660Z,77.37
2019-02-28T23:22:06.351Z,77.63
2019-02-28T23:24:36.073Z,73.27
2019-02-28T23:27:15.198Z,77.50
2019-02-28T23:29:49.494Z,91.07
2019-02-28T23:33:00.821Z,77.20
2019-02-28T23:35:34.276Z,76.80
2019-02-28T23:38:04.055Z,83.03
2019-02-28T23:40:35.530Z,80.87
2019-02-28T23:43:05.638Z,74.50
2019-02-28T23:45:35.306Z,93.53
2019-02-28T23:48:05.046Z,82.87
2019-02-28T23:50:34.707Z,92.70
2019-02-28T23:53:06.061Z,93.93
2019-02-28T23:55:38.628Z,83.87
2019-02-28T23:58:08.288Z,106.57
